createdAt,value
2018-12-13T00:00:30.551Z,6.30
2018-12-13T00:02:57.742Z,6.57
2018-12-13T00:05:24.900Z,6.43
2018-12-13T00:07:52.056Z,6.30
2018-12-13T00:10:19.216Z,6.53
2018-12-13T00:12:46.376Z,6.20
2018-12-13T00:15:13.555Z,6.10
2018-12-13T00:17:40.721Z,6.20
2018-12-13T00:20:07.951Z,6.00
2018-12-13T00:22:35.123Z,5.50
2018-12-13T00:25:02.272Z,5.10
2018-12-13T00:27:29.447Z,5.80
2018-12-13T00:29:56.632Z,6.00
2018-12-13T00:32:23.785Z,5.40
2018-12-13T00:34:50.951Z,6.00
2018-12-13T00:37:18.155Z,6.03
2018-12-13T00:39:45.311Z,5.50
2018-12-13T00:42:12.460Z,5.57
2018-12-13T00:44:39.622Z,5.10
2018-12-13T00:47:06.795Z,5.70
2018-12-13T00:49:33.960Z,5.67
2018-12-13T00:52:01.117Z,5.10
2018-12-13T00:54:28.323Z,5.47
2018-12-13T00:56:55.484Z,5.47
2018-12-13T00:59:22.635Z,4.73
2018-12-13T01:01:49.805Z,4.63
2018-12-13T01:04:17.064Z,4.53
2018-12-13T01:06:46.121Z,4.73
2018-12-13T01:09:13.469Z,5.90
2018-12-13T01:11:40.633Z,5.47
2018-12-13T01:14:07.892Z,4.97
2018-12-13T01:16:35.061Z,5.53
2018-12-13T01:19:02.216Z,5.70
2018-12-13T01:21:29.400Z,5.80
2018-12-13T01:23:56.558Z,5.60
2018-12-13T01:26:23.732Z,5.23
2018-12-13T01:28:50.881Z,4.83
2018-12-13T01:31:18.029Z,5.20
2018-12-13T01:33:45.192Z,5.57
2018-12-13T01:36:12.481Z,5.53
2018-12-13T01:38:39.774Z,6.07
2018-12-13T01:41:07.010Z,5.57
2018-12-13T01:43:34.163Z,4.97
2018-12-13T01:46:01.380Z,4.80
2018-12-13T01:48:28.591Z,5.50
2018-12-13T01:50:55.723Z,6.00
2018-12-13T01:53:23.135Z,5.63
2018-12-13T01:55:50.300Z,5.10
2018-12-13T01:58:17.467Z,5.17
2018-12-13T02:00:44.682Z,5.77
2018-12-13T02:03:11.965Z,5.07
2018-12-13T02:05:39.108Z,5.50
2018-12-13T02:08:06.268Z,4.60
2018-12-13T02:10:33.441Z,4.97
2018-12-13T02:13:00.608Z,5.13
2018-12-13T02:15:27.767Z,5.20
2018-12-13T02:17:54.932Z,4.90
2018-12-13T02:20:22.101Z,5.00
2018-12-13T02:22:49.248Z,5.37
2018-12-13T02:25:16.422Z,4.73
2018-12-13T02:27:43.578Z,4.83
2018-12-13T02:30:11.546Z,4.50
2018-12-13T02:32:38.810Z,4.53
2018-12-13T02:35:06.091Z,4.60
2018-12-13T02:37:33.323Z,4.13
2018-12-13T02:40:00.520Z,3.97
2018-12-13T02:42:27.683Z,4.37
2018-12-13T02:44:54.841Z,4.33
2018-12-13T02:47:22.000Z,4.67
2018-12-13T02:49:49.154Z,4.77
2018-12-13T02:52:16.310Z,4.27
2018-12-13T02:54:43.587Z,4.37
2018-12-13T02:57:10.753Z,4.63
2018-12-13T02:59:37.913Z,4.17
2018-12-13T03:02:05.089Z,4.37
2018-12-13T03:04:32.291Z,4.60
2018-12-13T03:06:59.477Z,4.20
2018-12-13T03:09:26.628Z,4.33
2018-12-13T03:11:53.772Z,4.83
2018-12-13T03:14:20.938Z,3.90
2018-12-13T03:16:48.091Z,4.00
2018-12-13T03:19:15.251Z,4.33
2018-12-13T03:21:42.543Z,4.70
2018-12-13T03:24:09.685Z,4.57
2018-12-13T03:26:36.898Z,4.40
2018-12-13T03:29:04.076Z,4.27
2018-12-13T03:31:31.226Z,4.57
2018-12-13T03:33:58.602Z,4.20
2018-12-13T03:36:25.745Z,4.00
2018-12-13T03:38:52.895Z,3.77
2018-12-13T03:41:20.052Z,3.83
2018-12-13T03:43:47.208Z,3.70
2018-12-13T03:46:14.372Z,3.40
2018-12-13T03:48:41.520Z,3.47
2018-12-13T03:51:08.680Z,3.70
2018-12-13T03:53:35.829Z,2.97
2018-12-13T03:56:03.192Z,3.40
2018-12-13T03:58:30.340Z,3.47
2018-12-13T04:00:57.651Z,3.37
2018-12-13T04:03:24.827Z,3.00
2018-12-13T04:05:51.995Z,2.97
2018-12-13T04:08:19.156Z,3.10
2018-12-13T04:10:46.305Z,2.97
2018-12-13T04:13:13.457Z,3.43
2018-12-13T04:15:40.604Z,3.00
2018-12-13T04:18:07.756Z,3.17
2018-12-13T04:20:34.906Z,3.30
2018-12-13T04:23:02.061Z,2.97
2018-12-13T04:25:29.292Z,2.90
2018-12-13T04:27:56.451Z,3.00
2018-12-13T04:30:23.667Z,2.70
2018-12-13T04:32:50.833Z,2.90
2018-12-13T04:35:17.981Z,2.63
2018-12-13T04:37:45.144Z,3.10
2018-12-13T04:40:12.320Z,2.93
2018-12-13T04:42:39.492Z,3.30
2018-12-13T04:45:06.780Z,3.17
2018-12-13T04:47:33.931Z,3.33
2018-12-13T04:50:01.106Z,2.63
2018-12-13T04:52:28.254Z,2.80
2018-12-13T04:54:55.411Z,3.00
2018-12-13T04:57:22.551Z,3.13
2018-12-13T04:59:49.730Z,3.03
2018-12-13T05:02:16.972Z,3.03
2018-12-13T05:04:44.138Z,3.47
2018-12-13T05:07:11.297Z,3.00
2018-12-13T05:09:38.475Z,2.83
2018-12-13T05:12:05.632Z,2.97
2018-12-13T05:14:32.800Z,3.10
2018-12-13T05:16:59.968Z,2.90
2018-12-13T05:19:27.103Z,2.93
2018-12-13T05:21:54.264Z,3.30
2018-12-13T05:24:21.424Z,2.90
2018-12-13T05:26:48.567Z,3.03
2018-12-13T05:29:15.745Z,2.80
2018-12-13T05:34:20.104Z,3.50
2018-12-13T05:36:47.260Z,3.20
2018-12-13T05:39:14.435Z,2.73
2018-12-13T05:41:41.599Z,3.00
2018-12-13T05:44:08.768Z,2.70
2018-12-13T05:46:35.939Z,3.27
2018-12-13T05:49:03.239Z,3.00
2018-12-13T05:51:30.403Z,2.90
2018-12-13T05:53:57.574Z,2.83
2018-12-13T05:56:24.748Z,3.00
2018-12-13T05:58:51.982Z,3.07
2018-12-13T06:01:19.148Z,3.17
2018-12-13T06:03:46.319Z,3.10
2018-12-13T06:06:13.497Z,2.97
2018-12-13T06:08:40.657Z,3.30
2018-12-13T06:11:07.828Z,3.00
2018-12-13T06:13:34.987Z,3.50
2018-12-13T06:16:02.164Z,3.30
2018-12-13T06:18:29.323Z,3.60
2018-12-13T06:20:56.504Z,3.50
2018-12-13T06:23:23.660Z,3.20
2018-12-13T06:25:51.144Z,3.10
2018-12-13T06:28:18.305Z,3.50
2018-12-13T06:30:45.479Z,2.83
2018-12-13T06:33:12.627Z,3.23
2018-12-13T06:35:39.800Z,3.23
2018-12-13T06:38:06.969Z,3.03
2018-12-13T06:40:34.128Z,3.43
2018-12-13T06:43:01.541Z,3.33
2018-12-13T06:45:28.828Z,3.13
2018-12-13T06:47:56.020Z,3.00
2018-12-13T06:50:23.304Z,3.50
2018-12-13T06:52:50.511Z,3.13
2018-12-13T06:55:17.668Z,3.20
2018-12-13T06:57:44.863Z,3.73
2018-12-13T07:00:12.140Z,3.47
2018-12-13T07:02:39.312Z,4.07
2018-12-13T07:05:06.479Z,3.40
2018-12-13T07:07:33.652Z,3.33
2018-12-13T07:10:00.821Z,3.93
2018-12-13T07:12:27.993Z,3.70
2018-12-13T07:14:55.236Z,3.50
2018-12-13T07:17:22.408Z,3.90
2018-12-13T07:19:49.563Z,3.43
2018-12-13T07:22:16.759Z,4.00
2018-12-13T07:24:50.661Z,3.73
2018-12-13T07:27:17.824Z,3.93
2018-12-13T07:29:44.995Z,3.93
2018-12-13T07:32:12.165Z,4.37
2018-12-13T07:34:39.348Z,4.30
2018-12-13T07:37:06.596Z,3.83
2018-12-13T07:39:33.790Z,4.30
2018-12-13T07:42:00.960Z,4.50
2018-12-13T07:44:28.127Z,3.93
2018-12-13T07:46:55.304Z,4.33
2018-12-13T07:49:32.284Z,4.03
2018-12-13T07:52:04.962Z,4.10
2018-12-13T07:54:36.624Z,4.23
2018-12-13T07:57:07.849Z,4.20
2018-12-13T07:59:43.004Z,4.00
2018-12-13T08:02:15.342Z,3.70
2018-12-13T08:04:48.140Z,4.50
2018-12-13T08:07:18.539Z,4.37
2018-12-13T08:09:52.040Z,4.70
2018-12-13T08:12:24.578Z,4.83
2018-12-13T08:14:58.235Z,4.70
2018-12-13T08:17:31.615Z,4.90
2018-12-13T08:19:59.348Z,4.37
2018-12-13T08:22:27.000Z,5.00
2018-12-13T08:33:10.911Z,5.17
2018-12-13T08:35:38.427Z,5.00
2018-12-13T08:38:05.945Z,4.73
2018-12-13T08:40:33.288Z,5.37
2018-12-13T08:43:00.723Z,5.63
2018-12-13T08:45:28.341Z,5.27
2018-12-13T08:47:55.858Z,4.97
2018-12-13T08:50:25.803Z,5.40
2018-12-13T08:52:53.233Z,5.50
2018-12-13T08:55:20.715Z,5.37
2018-12-13T08:57:48.083Z,5.30
2018-12-13T09:00:15.647Z,5.43
2018-12-13T09:02:43.072Z,5.10
2018-12-13T09:05:10.521Z,5.30
2018-12-13T09:07:38.184Z,6.20
2018-12-13T09:10:06.339Z,5.67
2018-12-13T09:12:33.827Z,5.10
2018-12-13T09:15:01.129Z,5.00
2018-12-13T09:17:28.616Z,5.43
2018-12-13T09:19:56.139Z,5.07
2018-12-13T09:22:26.405Z,5.43
2018-12-13T09:24:53.993Z,5.23
2018-12-13T09:27:21.185Z,6.07
2018-12-13T09:29:48.361Z,5.00
2018-12-13T09:32:15.729Z,5.50
2018-12-13T09:34:43.096Z,5.30
2018-12-13T09:37:10.284Z,5.60
2018-12-13T09:39:37.421Z,5.77
2018-12-13T09:42:04.568Z,5.63
2018-12-13T09:44:31.797Z,5.03
2018-12-13T09:46:58.969Z,5.80
2018-12-13T09:49:26.161Z,5.03
2018-12-13T09:51:53.362Z,5.30
2018-12-13T09:54:20.571Z,6.30
2018-12-13T09:56:47.756Z,5.80
2018-12-13T09:59:15.053Z,5.50
2018-12-13T10:01:42.250Z,5.40
2018-12-13T10:04:09.434Z,5.80
2018-12-13T10:06:36.604Z,4.90
2018-12-13T10:09:05.166Z,6.13
2018-12-13T10:11:32.375Z,5.50
2018-12-13T10:13:59.565Z,6.20
2018-12-13T10:16:26.842Z,5.80
2018-12-13T10:18:54.297Z,5.37
2018-12-13T10:21:21.452Z,5.90
2018-12-13T10:23:48.652Z,6.10
2018-12-13T10:26:15.831Z,6.03
2018-12-13T10:28:42.988Z,5.67
2018-12-13T10:31:10.298Z,5.67
2018-12-13T10:33:37.526Z,5.57
2018-12-13T10:36:04.673Z,6.50
2018-12-13T10:38:31.832Z,6.00
2018-12-13T10:40:59.000Z,6.30
2018-12-13T10:43:26.185Z,6.23
2018-12-13T10:45:53.606Z,6.30
2018-12-13T10:48:20.751Z,5.73
2018-12-13T10:50:47.915Z,5.40
2018-12-13T10:53:15.078Z,6.00
2018-12-13T10:55:42.257Z,6.40
2018-12-13T10:58:09.400Z,5.50
2018-12-13T11:00:39.424Z,6.63
2018-12-13T11:03:23.666Z,5.40
2018-12-13T11:05:51.198Z,5.93
2018-12-13T11:08:18.632Z,6.17
2018-12-13T11:10:46.020Z,5.70
2018-12-13T11:13:13.311Z,6.30
2018-12-13T11:15:40.591Z,5.90
2018-12-13T11:18:08.021Z,5.50
2018-12-13T11:20:35.264Z,5.43
2018-12-13T11:23:02.586Z,6.20
2018-12-13T11:25:30.175Z,5.77
2018-12-13T11:28:11.871Z,5.70
2018-12-13T11:30:39.123Z,5.50
2018-12-13T11:33:10.859Z,5.40
2018-12-13T11:35:43.982Z,5.67
2018-12-13T11:38:16.495Z,5.30
2018-12-13T11:40:48.194Z,5.53
2018-12-13T11:43:15.818Z,5.80
2018-12-13T11:45:49.187Z,5.57
2018-12-13T11:48:22.486Z,5.23
2018-12-13T11:50:58.126Z,5.20
2018-12-13T11:53:31.467Z,5.03
2018-12-13T11:56:04.988Z,5.57
2018-12-13T11:58:37.785Z,5.30
2018-12-13T12:01:09.710Z,5.17
2018-12-13T12:03:37.084Z,5.07
2018-12-13T12:06:04.243Z,5.57
2018-12-13T12:08:31.404Z,5.53
2018-12-13T12:10:58.543Z,5.40
2018-12-13T12:13:25.740Z,5.43
2018-12-13T12:15:52.958Z,5.17
2018-12-13T12:18:20.140Z,5.50
2018-12-13T12:20:47.300Z,5.37
2018-12-13T12:23:14.452Z,6.20
2018-12-13T12:25:41.743Z,5.40
2018-12-13T12:28:08.913Z,5.50
2018-12-13T12:30:36.161Z,5.30
2018-12-13T12:33:03.299Z,5.03
2018-12-13T12:35:30.460Z,5.57
2018-12-13T12:37:57.608Z,5.27
2018-12-13T12:40:24.762Z,5.10
2018-12-13T12:42:51.916Z,5.70
2018-12-13T12:45:19.071Z,5.57
2018-12-13T12:47:46.223Z,5.40
2018-12-13T12:50:13.380Z,5.00
2018-12-13T12:52:40.537Z,4.97
2018-12-13T12:55:07.709Z,5.00
2018-12-13T12:57:34.869Z,5.60
2018-12-13T13:00:02.047Z,5.13
2018-12-13T13:02:30.419Z,5.33
2018-12-13T13:04:57.611Z,5.23
2018-12-13T13:07:24.745Z,5.43
2018-12-13T13:09:51.897Z,5.10
2018-12-13T13:12:19.065Z,5.03
2018-12-13T13:14:46.209Z,4.80
2018-12-13T13:17:13.368Z,4.93
2018-12-13T13:19:40.528Z,4.60
2018-12-13T13:22:07.683Z,4.80
2018-12-13T13:24:34.852Z,4.77
2018-12-13T13:27:02.007Z,4.30
2018-12-13T13:29:29.175Z,4.60
2018-12-13T13:31:56.316Z,4.43
2018-12-13T13:34:23.471Z,4.47
2018-12-13T13:36:50.611Z,4.53
2018-12-13T13:39:17.772Z,3.87
2018-12-13T13:41:44.923Z,4.83
2018-12-13T13:44:12.278Z,4.40
2018-12-13T13:46:39.428Z,4.30
2018-12-13T13:49:06.597Z,4.53
2018-12-13T13:51:33.872Z,4.40
2018-12-13T13:54:01.012Z,4.50
2018-12-13T13:56:28.172Z,5.10
2018-12-13T13:58:55.332Z,5.00
2018-12-13T14:01:22.493Z,4.30
2018-12-13T14:03:49.631Z,4.27
2018-12-13T14:06:16.863Z,4.70
2018-12-13T14:08:44.016Z,4.03
2018-12-13T14:11:11.184Z,4.33
2018-12-13T14:13:38.426Z,4.23
2018-12-13T14:16:05.668Z,4.20
2018-12-13T14:18:32.828Z,4.00
2018-12-13T14:21:00.000Z,3.90
2018-12-13T14:23:27.388Z,3.87
2018-12-13T14:25:54.586Z,4.10
2018-12-13T14:28:21.716Z,3.80
2018-12-13T14:30:48.884Z,4.17
2018-12-13T14:33:16.031Z,3.70
2018-12-13T14:35:43.192Z,4.00
2018-12-13T14:38:10.438Z,3.87
2018-12-13T14:40:37.568Z,4.00
2018-12-13T14:43:04.733Z,3.70
2018-12-13T14:45:31.876Z,3.53
2018-12-13T14:47:59.056Z,3.80
2018-12-13T14:52:59.995Z,4.23
2018-12-13T14:55:27.133Z,3.73
2018-12-13T14:57:54.293Z,3.63
2018-12-13T15:00:21.426Z,4.00
2018-12-13T15:02:48.597Z,3.70
2018-12-13T15:05:16.255Z,4.07
2018-12-13T15:07:43.412Z,3.97
2018-12-13T15:10:10.563Z,3.50
2018-12-13T15:12:37.721Z,3.70
2018-12-13T15:15:05.072Z,3.50
2018-12-13T15:17:32.240Z,3.97
2018-12-13T15:19:59.482Z,4.20
2018-12-13T15:22:26.635Z,3.90
2018-12-13T15:24:53.793Z,3.90
2018-12-13T15:27:20.956Z,3.57
2018-12-13T15:29:48.096Z,3.50
2018-12-13T15:32:15.281Z,3.60
2018-12-13T15:34:42.429Z,4.10
2018-12-13T15:37:09.613Z,3.70
2018-12-13T15:39:36.780Z,4.17
2018-12-13T15:42:04.017Z,3.70
2018-12-13T15:44:31.172Z,3.87
2018-12-13T15:46:58.307Z,3.87
2018-12-13T15:49:25.676Z,3.70
2018-12-13T15:51:52.924Z,4.07
2018-12-13T15:54:20.192Z,4.07
2018-12-13T15:56:47.363Z,4.07
2018-12-13T15:59:14.607Z,3.80
2018-12-13T16:01:41.756Z,3.73
2018-12-13T16:04:08.908Z,3.80
2018-12-13T16:06:36.060Z,3.87
2018-12-13T16:09:05.175Z,4.17
2018-12-13T16:11:32.331Z,3.63
2018-12-13T16:13:59.476Z,4.20
2018-12-13T16:16:26.644Z,3.80
2018-12-13T16:18:53.888Z,4.70
2018-12-13T16:21:21.130Z,4.60
2018-12-13T16:23:48.331Z,3.70
2018-12-13T16:26:15.472Z,4.63
2018-12-13T16:28:42.641Z,4.30
2018-12-13T16:31:09.798Z,4.73
2018-12-13T16:33:36.953Z,4.30
2018-12-13T16:36:04.125Z,4.50
2018-12-13T16:38:31.272Z,4.27
2018-12-13T16:40:58.446Z,4.83
2018-12-13T16:43:25.688Z,4.10
2018-12-13T16:45:52.848Z,4.60
2018-12-13T16:48:20.002Z,4.10
2018-12-13T16:50:47.168Z,4.23
2018-12-13T16:53:14.320Z,4.13
2018-12-13T16:55:41.594Z,3.90
2018-12-13T16:58:08.732Z,4.60
2018-12-13T17:00:35.881Z,4.97
2018-12-13T17:03:07.530Z,4.87
2018-12-13T17:05:34.689Z,4.50
2018-12-13T17:08:01.837Z,4.50
2018-12-13T17:10:29.013Z,4.70
2018-12-13T17:12:56.192Z,4.77
2018-12-13T17:15:23.353Z,4.90
2018-12-13T17:17:50.526Z,4.63
2018-12-13T17:20:17.677Z,4.90
2018-12-13T17:22:44.849Z,4.90
2018-12-13T17:25:11.995Z,5.73
2018-12-13T17:27:39.151Z,5.53
2018-12-13T17:30:07.245Z,4.80
2018-12-13T17:32:34.396Z,5.13
2018-12-13T17:35:01.566Z,4.97
2018-12-13T17:37:28.714Z,5.77
2018-12-13T17:39:55.864Z,5.23
2018-12-13T17:42:23.024Z,5.10
2018-12-13T17:44:50.184Z,5.10
2018-12-13T17:47:17.364Z,5.40
2018-12-13T17:49:44.511Z,5.13
2018-12-13T17:52:11.665Z,5.43
2018-12-13T17:54:38.826Z,6.00
2018-12-13T17:57:05.993Z,15.70
2018-12-13T17:59:33.152Z,10.83
2018-12-13T18:02:00.299Z,6.43
2018-12-13T18:04:27.464Z,6.07
2018-12-13T18:06:54.625Z,6.17
2018-12-13T18:09:21.796Z,6.70
2018-12-13T18:11:48.935Z,6.27
2018-12-13T18:14:16.089Z,5.60
2018-12-13T18:16:43.588Z,5.53
2018-12-13T18:19:11.024Z,5.57
2018-12-13T18:21:38.172Z,5.07
2018-12-13T18:24:05.332Z,5.10
2018-12-13T18:26:32.467Z,5.00
2018-12-13T18:28:59.644Z,5.20
2018-12-13T18:31:26.781Z,5.90
2018-12-13T18:33:53.927Z,5.33
2018-12-13T18:36:21.096Z,4.90
2018-12-13T18:38:48.258Z,4.67
2018-12-13T18:41:15.412Z,5.37
2018-12-13T18:43:42.579Z,5.20
2018-12-13T18:46:09.736Z,5.83
2018-12-13T18:48:36.891Z,7.53
2018-12-13T18:51:04.155Z,5.23
2018-12-13T18:53:31.324Z,5.20
2018-12-13T18:55:58.490Z,6.43
2018-12-13T18:58:25.644Z,5.67
2018-12-13T19:00:52.800Z,6.07
2018-12-13T19:03:19.939Z,6.40
2018-12-13T19:05:47.115Z,6.17
2018-12-13T19:08:14.292Z,9.03
2018-12-13T19:10:41.968Z,11.33
2018-12-13T19:13:09.291Z,12.87
2018-12-13T19:15:36.431Z,13.93
2018-12-13T19:18:03.692Z,13.60
2018-12-13T19:20:30.843Z,11.20
2018-12-13T19:22:57.999Z,10.00
2018-12-13T19:25:25.171Z,12.40
2018-12-13T19:27:52.327Z,16.20
2018-12-13T19:30:19.484Z,14.03
2018-12-13T19:32:46.645Z,15.43
2018-12-13T19:35:19.261Z,10.73
2018-12-13T19:37:42.968Z,9.90
2018-12-13T19:40:10.132Z,10.07
2018-12-13T19:42:37.297Z,10.07
2018-12-13T19:45:04.895Z,9.90
2018-12-13T19:47:32.220Z,8.33
2018-12-13T19:49:59.463Z,8.90
2018-12-13T19:52:26.621Z,8.93
2018-12-13T19:54:53.878Z,8.13
2018-12-13T19:57:21.034Z,7.23
2018-12-13T19:59:48.195Z,9.50
2018-12-13T20:02:15.349Z,14.10
2018-12-13T20:04:42.529Z,11.00
2018-12-13T20:07:09.689Z,9.87
2018-12-13T20:09:36.847Z,10.13
2018-12-13T20:12:04.104Z,11.33
2018-12-13T20:14:31.259Z,10.53
2018-12-13T20:16:58.425Z,9.07
2018-12-13T20:19:25.598Z,8.03
2018-12-13T20:21:52.836Z,6.77
2018-12-13T20:24:19.980Z,7.00
2018-12-13T20:26:47.134Z,7.90
2018-12-13T20:29:15.020Z,7.00
2018-12-13T20:31:42.165Z,6.73
2018-12-13T20:34:09.307Z,7.00
2018-12-13T20:36:36.481Z,6.63
2018-12-13T20:39:06.920Z,5.57
2018-12-13T20:41:34.111Z,5.87
2018-12-13T20:44:01.283Z,5.00
2018-12-13T20:46:28.424Z,6.30
2018-12-13T20:48:55.587Z,6.23
2018-12-13T20:51:22.743Z,6.90
2018-12-13T20:53:49.900Z,6.17
2018-12-13T20:56:17.073Z,6.40
2018-12-13T20:58:44.229Z,8.30
2018-12-13T21:01:11.404Z,11.10
2018-12-13T21:03:38.573Z,9.47
2018-12-13T21:06:05.715Z,8.53
2018-12-13T21:08:32.872Z,8.20
2018-12-13T21:11:00.040Z,6.80
2018-12-13T21:13:27.216Z,7.30
2018-12-13T21:15:54.380Z,8.83
2018-12-13T21:18:21.545Z,8.67
2018-12-13T21:20:48.703Z,8.23
2018-12-13T21:23:15.868Z,7.70
2018-12-13T21:25:43.025Z,7.07
2018-12-13T21:28:10.184Z,7.30
2018-12-13T21:30:37.336Z,6.60
2018-12-13T21:33:04.498Z,5.97
2018-12-13T21:35:31.649Z,6.10
2018-12-13T21:37:58.824Z,5.40
2018-12-13T21:40:25.991Z,7.20
2018-12-13T21:42:53.131Z,9.33
2018-12-13T21:45:20.304Z,8.10
2018-12-13T21:47:47.464Z,7.80
2018-12-13T21:50:14.640Z,7.03
2018-12-13T21:52:41.793Z,6.20
2018-12-13T21:55:08.961Z,6.30
2018-12-13T21:57:36.123Z,5.60
2018-12-13T22:00:03.604Z,5.80
2018-12-13T22:02:30.778Z,5.30
2018-12-13T22:04:57.931Z,5.33
2018-12-13T22:07:25.097Z,6.20
2018-12-13T22:09:52.271Z,6.23
2018-12-13T22:12:19.415Z,5.83
2018-12-13T22:14:46.579Z,5.70
2018-12-13T22:17:13.728Z,5.90
2018-12-13T22:19:40.896Z,6.63
2018-12-13T22:22:08.063Z,7.50
2018-12-13T22:24:35.388Z,7.03
2018-12-13T22:27:02.556Z,7.67
2018-12-13T22:29:29.701Z,6.00
2018-12-13T22:31:57.097Z,6.30
2018-12-13T22:34:24.368Z,6.57
2018-12-13T22:36:51.752Z,5.77
2018-12-13T22:39:18.893Z,5.70
2018-12-13T22:41:46.060Z,6.10
2018-12-13T22:44:13.233Z,6.27
2018-12-13T22:46:40.492Z,7.00
2018-12-13T22:49:07.664Z,6.60
2018-12-13T22:51:34.957Z,5.40
2018-12-13T22:54:02.124Z,5.77
2018-12-13T22:56:29.410Z,5.60
2018-12-13T22:58:56.581Z,5.60
2018-12-13T23:01:23.830Z,6.10
2018-12-13T23:03:50.993Z,5.80
2018-12-13T23:06:18.153Z,6.07
2018-12-13T23:08:45.327Z,6.30
2018-12-13T23:11:12.880Z,7.30
2018-12-13T23:13:40.036Z,7.00
2018-12-13T23:16:07.199Z,7.33
2018-12-13T23:18:34.369Z,7.00
2018-12-13T23:21:01.507Z,7.47
2018-12-13T23:23:28.676Z,7.07
2018-12-13T23:25:55.856Z,7.00
2018-12-13T23:28:23.033Z,7.60
2018-12-13T23:30:50.252Z,6.30
2018-12-13T23:33:17.412Z,7.77
2018-12-13T23:35:44.581Z,6.57
2018-12-13T23:38:11.731Z,6.73
2018-12-13T23:40:38.890Z,6.70
2018-12-13T23:43:06.039Z,6.73
2018-12-13T23:45:33.193Z,6.30
2018-12-13T23:48:00.361Z,6.53
2018-12-13T23:50:27.519Z,6.80
2018-12-13T23:52:54.704Z,6.40
2018-12-13T23:55:21.852Z,6.50
2018-12-13T23:57:49.016Z,5.40
